Time;durP1;ratioP1;P1;durP2;ratioP2;P2;SDS_P1;SDS_P2;PMS_P1;PMS_P2;Temp;Humidity;BMP_temperature;BMP_pressure;BME280_temperature;BME280_humidity;BME280_pressure;Samples;Min_cycle;Max_cycle;Signal;HPM_P1;HPM_P2
2022/04/07 10:56:38;;;;;;;2.53;1.50;;;8.50;99.90;;;;;;5111491;27;20972;-63
2022/04/07 10:59:23;;;;;;;1.15;1.15;;;8.70;99.90;;;;;;5111397;28;20169;-64
2022/04/07 11:01:59;;;;;;;1.25;1.25;;;8.90;99.90;;;;;;5111521;28;20195;-63
2022/04/07 11:04:25;;;;;;;1.10;1.10;;;9.00;99.90;;;;;;5110352;28;20486;-63
2022/04/07 11:07:13;;;;;;;1.40;1.30;;;9.00;99.90;;;;;;5111499;28;20181;-63
2022/04/07 11:09:58;;;;;;;1.60;1.52;;;8.90;99.90;;;;;;5111379;28;20258;-63
2022/04/07 11:12:25;;;;;;;4.45;1.65;;;8.90;99.90;;;;;;5110957;28;20175;-63
2022/04/07 11:15:18;;;;;;;1.10;1.10;;;9.00;99.90;;;;;;5110892;28;20190;-63
2022/04/07 11:17:44;;;;;;;1.25;1.20;;;9.10;99.90;;;;;;5111098;28;20183;-63
2022/04/07 11:20:15;;;;;;;1.50;1.50;;;9.20;99.90;;;;;;5111291;28;20547;-63
2022/04/07 11:22:56;;;;;;;1.20;1.20;;;9.20;99.90;;;;;;5111069;28;20175;-63
2022/04/07 11:25:34;;;;;;;2.47;1.10;;;9.10;99.90;;;;;;5110939;28;20173;-63
2022/04/07 11:28:22;;;;;;;1.42;1.42;;;9.20;99.90;;;;;;5111041;28;20163;-63
2022/04/07 11:30:54;;;;;;;1.20;1.20;;;9.20;99.90;;;;;;5110819;28;20211;-64
2022/04/07 11:33:28;;;;;;;1.10;1.02;;;9.30;99.90;;;;;;5110986;28;20173;-63
2022/04/07 11:36:00;;;;;;;1.20;1.10;;;9.50;99.90;;;;;;5110866;28;20262;-63
2022/04/07 11:38:42;;;;;;;1.40;1.40;;;9.60;99.90;;;;;;5110790;28;20164;-63
2022/04/07 11:41:16;;;;;;;1.45;1.20;;;9.60;99.90;;;;;;5110612;28;20171;-63
2022/04/07 11:43:47;;;;;;;1.05;1.05;;;9.60;99.90;;;;;;5110549;28;20512;-63
2022/04/07 11:46:26;;;;;;;1.50;1.10;;;9.60;99.90;;;;;;5110547;28;20171;-63
2022/04/07 11:48:52;;;;;;;1.30;1.10;;;9.60;99.90;;;;;;5110665;28;20203;-63
2022/04/07 11:51:17;;;;;;;1.00;1.00;;;9.60;99.90;;;;;;5110583;28;20199;-63
2022/04/07 11:53:52;;;;;;;1.20;1.10;;;9.70;99.90;;;;;;5109535;28;20206;-63
2022/04/07 11:56:22;;;;;;;1.13;1.13;;;9.90;99.90;;;;;;5110161;28;20267;-63
2022/04/07 11:59:07;;;;;;;1.75;1.13;;;10.00;99.90;;;;;;5110609;28;20193;-63
2022/04/07 12:01:35;;;;;;;1.13;1.13;;;10.10;99.90;;;;;;5110259;28;20194;-63
2022/04/07 12:04:02;;;;;;;1.00;1.00;;;10.30;99.90;;;;;;5110309;28;20163;-63
2022/04/07 12:06:33;;;;;;;1.85;0.98;;;10.40;99.90;;;;;;5104723;28;20175;-63
2022/04/07 12:09:02;;;;;;;1.20;1.20;;;10.40;99.90;;;;;;5095502;28;20171;-63
2022/04/07 12:11:31;;;;;;;1.20;1.20;;;10.50;99.90;;;;;;5096685;28;20176;-63
2022/04/07 12:13:57;;;;;;;1.10;1.10;;;10.50;99.90;;;;;;5096591;28;20262;-63
2022/04/07 12:16:27;;;;;;;1.83;1.40;;;10.60;99.90;;;;;;5096337;28;20203;-63
2022/04/07 12:18:59;;;;;;;1.05;1.05;;;10.50;99.90;;;;;;5095009;28;20552;-63
2022/04/07 12:21:27;;;;;;;1.40;1.30;;;10.40;99.90;;;;;;5095252;28;20557;-62
2022/04/07 12:24:13;;;;;;;1.00;1.00;;;10.30;99.90;;;;;;5096311;28;20613;-62
2022/04/07 12:26:47;;;;;;;3.72;1.10;;;10.30;99.90;;;;;;5096232;28;20317;-63
2022/04/07 12:29:17;;;;;;;1.45;1.35;;;10.30;99.90;;;;;;5096330;28;20262;-62
2022/04/07 12:31:44;;;;;;;2.00;0.98;;;10.30;99.90;;;;;;5096225;28;20179;-62
2022/04/07 12:34:16;;;;;;;1.00;1.00;;;10.30;99.90;;;;;;5096013;28;20175;-62
2022/04/07 12:36:42;;;;;;;1.15;1.13;;;10.50;99.90;;;;;;5096138;28;20632;-63
2022/04/07 12:39:12;;;;;;;0.90;0.90;;;10.60;99.90;;;;;;5095921;28;20516;-63
2022/04/07 12:41:50;;;;;;;4.45;1.35;;;10.70;99.90;;;;;;5095961;28;20164;-63
2022/04/07 12:44:31;;;;;;;1.02;1.02;;;10.70;99.90;;;;;;5095822;28;20198;-63
2022/04/07 12:46:58;;;;;;;1.10;1.10;;;10.60;99.90;;;;;;5095857;28;20164;-63
2022/04/07 12:49:31;;;;;;;3.45;1.00;;;10.70;99.90;;;;;;5095865;28;20633;-63
2022/04/07 12:52:16;;;;;;;3.28;1.50;;;10.80;99.90;;;;;;5095708;28;20210;-63
2022/04/07 12:55:17;;;;;;;1.73;1.10;;;10.80;99.90;;;;;;5095463;28;20703;-63
2022/04/07 12:57:44;;;;;;;2.80;1.40;;;11.00;99.90;;;;;;5072766;28;20534;-63
2022/04/07 13:00:18;;;;;;;1.27;1.15;;;11.10;99.90;;;;;;5095857;28;20168;-63
2022/04/07 13:02:48;;;;;;;2.20;1.55;;;11.30;99.90;;;;;;5095487;28;20198;-63
2022/04/07 13:05:20;;;;;;;1.40;1.30;;;11.60;99.90;;;;;;5095490;28;20171;-63
2022/04/07 13:07:46;;;;;;;2.60;1.25;;;11.70;99.90;;;;;;5095375;28;20187;-63
2022/04/07 13:10:12;;;;;;;1.20;1.10;;;11.80;99.90;;;;;;5095396;28;20246;-63
2022/04/07 13:12:38;;;;;;;1.42;1.15;;;12.00;99.90;;;;;;5095422;28;20682;-63
2022/04/07 13:15:04;;;;;;;3.28;1.48;;;12.00;99.90;;;;;;5094031;28;20217;-63
2022/04/07 13:17:30;;;;;;;1.30;1.30;;;11.90;99.90;;;;;;5094793;28;20614;-63
2022/04/07 13:20:04;;;;;;;1.85;1.30;;;11.90;99.90;;;;;;5094328;28;20167;-63
2022/04/07 13:22:31;;;;;;;3.83;1.50;;;11.70;99.90;;;;;;5095181;28;20166;-63
2022/04/07 13:24:57;;;;;;;4.18;1.77;;;11.40;99.90;;;;;;5095094;28;20164;-63
2022/04/07 13:27:22;;;;;;;6.85;1.40;;;11.10;99.90;;;;;;5095051;28;20221;-63
2022/04/07 13:29:48;;;;;;;4.07;1.77;;;10.90;99.90;;;;;;5095113;28;20175;-63
2022/04/07 13:32:14;;;;;;;3.13;2.10;;;10.70;99.90;;;;;;5095110;28;20269;-63
2022/04/07 13:34:39;;;;;;;2.90;1.70;;;10.60;99.90;;;;;;5094819;28;20187;-63
2022/04/07 13:37:05;;;;;;;4.00;1.70;;;10.40;99.90;;;;;;5094735;28;20175;-62
2022/04/07 13:39:31;;;;;;;3.95;1.77;;;10.20;99.90;;;;;;5094834;28;20174;-63
2022/04/07 13:41:57;;;;;;;3.97;1.58;;;9.90;99.90;;;;;;5094812;28;20289;-63
2022/04/07 13:44:23;;;;;;;1.83;1.63;;;9.30;99.90;;;;;;5094824;28;20664;-63
2022/04/07 13:46:48;;;;;;;2.92;1.80;;;8.60;99.90;;;;;;5095148;28;20172;-63
2022/04/07 13:49:16;;;;;;;9.38;2.22;;;7.90;99.90;;;;;;5094790;28;20168;-63
2022/04/07 14:00:17;;;;;;;7.32;2.78;;;6.70;99.90;;;;;;5070899;28;20534;-64
2022/04/07 14:02:43;;;;;;;5.28;2.95;;;6.80;99.90;;;;;;5070894;28;20238;-63
2022/04/07 14:05:09;;;;;;;5.03;4.05;;;6.90;99.90;;;;;;5070915;28;20157;-63
2022/04/07 14:07:34;;;;;;;4.90;2.25;;;6.90;99.90;;;;;;5070929;28;20169;-64
2022/04/07 14:10:00;;;;;;;3.20;2.50;;;7.00;99.90;;;;;;5070736;28;20175;-63
2022/04/07 14:12:25;;;;;;;4.03;2.78;;;7.10;99.90;;;;;;5071053;28;20164;-63
2022/04/07 14:14:51;;;;;;;5.40;2.70;;;7.20;99.90;;;;;;5070769;28;20164;-63
2022/04/07 14:17:17;;;;;;;6.00;2.83;;;7.30;99.90;;;;;;5070775;28;20530;-63
2022/04/07 14:19:42;;;;;;;5.43;3.10;;;7.30;99.90;;;;;;5070432;28;20223;-63
2022/04/07 14:22:08;;;;;;;14.45;4.43;;;7.40;99.90;;;;;;5070729;28;20204;-63
2022/04/07 14:24:34;;;;;;;6.30;2.90;;;7.40;99.90;;;;;;5070497;28;20161;-63
2022/04/07 14:27:01;;;;;;;8.90;3.25;;;7.40;99.90;;;;;;5070833;28;20758;-63
2022/04/07 14:29:26;;;;;;;6.47;3.17;;;7.30;99.90;;;;;;5070327;28;20164;-63
2022/04/07 14:31:52;;;;;;;5.78;2.78;;;7.20;99.90;;;;;;5070195;28;20176;-64
2022/04/07 14:34:17;;;;;;;4.82;2.78;;;7.10;99.90;;;;;;5070286;28;20681;-64
2022/04/07 14:36:45;;;;;;;2.92;2.08;;;7.00;99.90;;;;;;5069998;28;20173;-64
2022/04/07 14:39:10;;;;;;;8.55;1.98;;;7.00;99.90;;;;;;5069672;28;20196;-64
2022/04/07 14:41:36;;;;;;;4.43;1.77;;;7.10;99.90;;;;;;5070166;28;20165;-64
2022/04/07 14:44:01;;;;;;;4.22;2.28;;;7.30;99.90;;;;;;5070159;28;20176;-64
2022/04/07 14:46:27;;;;;;;6.65;2.33;;;7.40;99.90;;;;;;5070180;28;20207;-64
2022/04/07 14:48:53;;;;;;;6.82;2.67;;;7.30;99.90;;;;;;5070040;28;20172;-64
2022/04/07 14:51:18;;;;;;;5.85;2.40;;;7.30;99.90;;;;;;5069991;28;20248;-64
2022/04/07 14:53:45;;;;;;;9.35;3.88;;;7.40;99.90;;;;;;5068712;28;20668;-64
2022/04/07 14:56:10;;;;;;;3.72;2.35;;;7.50;99.90;;;;;;5069763;28;20160;-64
2022/04/07 14:58:36;;;;;;;4.65;2.28;;;7.50;99.90;;;;;;5069658;28;20312;-64
2022/04/07 15:01:02;;;;;;;7.35;2.25;;;7.50;99.90;;;;;;5069935;28;20179;-64
2022/04/07 15:03:27;;;;;;;5.57;2.03;;;7.70;99.90;;;;;;5069808;28;20547;-63
2022/04/07 15:05:53;;;;;;;2.25;1.58;;;8.10;99.90;;;;;;5069785;28;20515;-63
2022/04/07 15:08:19;;;;;;;2.50;2.10;;;8.40;99.90;;;;;;5069555;28;20172;-64
2022/04/07 15:10:44;;;;;;;9.65;2.05;;;8.80;99.90;;;;;;5061380;28;20169;-63
2022/04/07 15:13:10;;;;;;;7.95;2.20;;;9.10;99.90;;;;;;5056371;28;20173;-64
2022/04/07 15:15:36;;;;;;;3.40;2.00;;;9.10;99.90;;;;;;5056253;28;20173;-63
2022/04/07 15:18:03;;;;;;;5.75;2.05;;;9.00;99.90;;;;;;5056296;28;20193;-63
2022/04/07 15:20:29;;;;;;;7.20;2.60;;;8.80;99.90;;;;;;5056281;28;20702;-63
2022/04/07 15:22:55;;;;;;;8.55;2.13;;;8.60;99.90;;;;;;5055056;28;20216;-63
2022/04/07 15:25:20;;;;;;;6.63;2.45;;;8.40;99.90;;;;;;5056181;28;20196;-63
2022/04/07 15:27:46;;;;;;;10.05;2.70;;;8.30;99.90;;;;;;5056308;28;20642;-63
2022/04/07 15:30:14;;;;;;;4.15;2.30;;;8.10;99.90;;;;;;5056001;28;20181;-63
2022/04/07 15:32:40;;;;;;;7.70;2.65;;;8.00;99.90;;;;;;5056059;28;20200;-63
2022/04/07 15:35:06;;;;;;;8.55;2.65;;;8.00;99.90;;;;;;5055890;28;20213;-63
2022/04/07 15:37:31;;;;;;;14.13;2.65;;;7.90;99.90;;;;;;5055848;28;20173;-63
2022/04/07 15:39:57;;;;;;;14.57;3.42;;;7.90;99.90;;;;;;5055880;28;20200;-63
2022/04/07 15:42:23;;;;;;;5.88;2.60;;;7.90;99.90;;;;;;5055814;28;20169;-63
2022/04/07 15:44:48;;;;;;;10.90;3.08;;;7.90;99.90;;;;;;5054571;28;20161;-63
2022/04/07 15:47:14;;;;;;;8.02;2.60;;;7.80;99.90;;;;;;5055686;28;20247;-63
2022/04/07 15:49:40;;;;;;;10.07;2.53;;;7.80;99.90;;;;;;5055932;28;20177;-63
2022/04/07 15:52:10;;;;;;;10.18;2.10;;;7.80;99.90;;;;;;5055405;28;20195;-63
2022/04/07 15:54:36;;;;;;;11.52;2.97;;;7.80;99.90;;;;;;5055807;28;20196;-63
2022/04/07 15:57:02;;;;;;;7.43;2.88;;;7.80;99.90;;;;;;5055382;28;20177;-63
